Warner, New Hampshire
Current Conditions -  °F | °C
As of 12:51 PM on Friday 24 Oct 2014 (Local Time) from KCON Reporting Station
Light Rain Light Rain  
Wind Chill: 45°   Ceiling: 1500
Heat Index: 49°   Visibility: 10mi
Dew Point: 45°   Wind: 10mph
Humidity: 86%   Direction: 310°NW
Pressure: 29.71"   Gusts: NA
Location:  43.28°N, 71.82°W
Report Text: KCON 241651Z AUTO 31009KT 10SM -RA OVC015 09/07 A2971 RMK AO2 SLP063 P0000 T00940072
Loading
Personal Weather Stations






























Interactive Weather Map New forecast layout! Learn more

10-Day Weather Forecast

Advertisements
Track Severe Weather on mobile